sensor_id;sensor_type;location;lat;lon;timestamp;P1;durP1;ratioP1;P2;durP2;ratioP2
46110;SDS011;31849;55.992;37.252;2023-04-15T00:01:25;5.25;;;1.90;;
46110;SDS011;31849;55.992;37.252;2023-04-15T00:06:29;3.45;;;1.48;;
46110;SDS011;31849;55.992;37.252;2023-04-15T00:11:34;3.90;;;1.90;;
46110;SDS011;31849;55.992;37.252;2023-04-15T00:16:37;4.32;;;1.77;;
46110;SDS011;31849;55.992;37.252;2023-04-15T00:21:41;4.50;;;1.90;;
46110;SDS011;31849;55.992;37.252;2023-04-15T00:26:46;7.25;;;1.80;;
46110;SDS011;31849;55.992;37.252;2023-04-15T00:31:49;5.93;;;1.90;;
46110;SDS011;31849;55.992;37.252;2023-04-15T00:36:53;6.00;;;2.50;;
46110;SDS011;31849;55.992;37.252;2023-04-15T00:41:58;5.82;;;1.80;;
46110;SDS011;31849;55.992;37.252;2023-04-15T00:47:02;4.95;;;1.83;;
46110;SDS011;31849;55.992;37.252;2023-04-15T00:52:07;4.95;;;2.00;;
46110;SDS011;31849;55.992;37.252;2023-04-15T00:57:12;5.72;;;2.10;;
46110;SDS011;31849;55.992;37.252;2023-04-15T01:02:16;4.80;;;1.85;;
46110;SDS011;31849;55.992;37.252;2023-04-15T01:07:20;4.37;;;1.77;;
46110;SDS011;31849;55.992;37.252;2023-04-15T01:12:25;4.47;;;1.92;;
46110;SDS011;31849;55.992;37.252;2023-04-15T01:17:30;3.53;;;1.88;;
46110;SDS011;31849;55.992;37.252;2023-04-15T01:22:33;3.58;;;1.70;;
46110;SDS011;31849;55.992;37.252;2023-04-15T01:27:39;4.22;;;1.48;;
46110;SDS011;31849;55.992;37.252;2023-04-15T01:32:44;4.50;;;1.85;;
46110;SDS011;31849;55.992;37.252;2023-04-15T01:38:07;4.05;;;1.77;;
46110;SDS011;31849;55.992;37.252;2023-04-15T01:43:13;3.95;;;1.50;;
46110;SDS011;31849;55.992;37.252;2023-04-15T01:48:18;4.68;;;1.52;;
46110;SDS011;31849;55.992;37.252;2023-04-15T01:53:23;5.03;;;1.50;;
46110;SDS011;31849;55.992;37.252;2023-04-15T01:58:30;4.43;;;1.77;;
46110;SDS011;31849;55.992;37.252;2023-04-15T02:03:34;4.05;;;1.48;;
46110;SDS011;31849;55.992;37.252;2023-04-15T02:08:40;5.63;;;1.65;;
46110;SDS011;31849;55.992;37.252;2023-04-15T02:18:51;5.47;;;1.65;;
46110;SDS011;31849;55.992;37.252;2023-04-15T02:23:56;3.25;;;1.40;;
46110;SDS011;31849;55.992;37.252;2023-04-15T02:34:07;5.70;;;1.50;;
46110;SDS011;31849;55.992;37.252;2023-04-15T02:44:20;3.63;;;1.92;;
46110;SDS011;31849;55.992;37.252;2023-04-15T02:49:26;4.63;;;1.52;;
46110;SDS011;31849;55.992;37.252;2023-04-15T02:54:32;6.65;;;2.08;;
46110;SDS011;31849;55.992;37.252;2023-04-15T02:59:38;3.42;;;1.70;;
46110;SDS011;31849;55.992;37.252;2023-04-15T03:04:43;4.03;;;1.45;;
46110;SDS011;31849;55.992;37.252;2023-04-15T03:09:48;3.60;;;1.80;;
46110;SDS011;31849;55.992;37.252;2023-04-15T03:14:54;3.30;;;1.63;;
46110;SDS011;31849;55.992;37.252;2023-04-15T03:20:00;2.72;;;1.60;;
46110;SDS011;31849;55.992;37.252;2023-04-15T03:25:05;3.28;;;1.40;;
46110;SDS011;31849;55.992;37.252;2023-04-15T03:30:12;5.45;;;1.90;;
46110;SDS011;31849;55.992;37.252;2023-04-15T03:35:16;4.28;;;1.80;;
46110;SDS011;31849;55.992;37.252;2023-04-15T03:40:21;4.07;;;1.85;;
46110;SDS011;31849;55.992;37.252;2023-04-15T03:45:27;5.05;;;2.40;;
46110;SDS011;31849;55.992;37.252;2023-04-15T03:50:32;5.32;;;2.03;;
46110;SDS011;31849;55.992;37.252;2023-04-15T04:00:43;8.95;;;3.10;;
46110;SDS011;31849;55.992;37.252;2023-04-15T04:05:48;5.68;;;2.83;;
46110;SDS011;31849;55.992;37.252;2023-04-15T04:10:52;4.20;;;2.13;;
46110;SDS011;31849;55.992;37.252;2023-04-15T04:21:04;5.63;;;1.60;;
46110;SDS011;31849;55.992;37.252;2023-04-15T04:26:08;3.67;;;1.67;;
46110;SDS011;31849;55.992;37.252;2023-04-15T04:31:14;4.43;;;2.20;;
46110;SDS011;31849;55.992;37.252;2023-04-15T04:36:19;4.78;;;2.25;;
46110;SDS011;31849;55.992;37.252;2023-04-15T04:41:24;2.90;;;1.40;;
46110;SDS011;31849;55.992;37.252;2023-04-15T04:46:30;3.50;;;1.80;;
46110;SDS011;31849;55.992;37.252;2023-04-15T04:51:35;4.35;;;1.70;;
46110;SDS011;31849;55.992;37.252;2023-04-15T04:56:40;6.57;;;2.00;;
46110;SDS011;31849;55.992;37.252;2023-04-15T05:01:46;5.47;;;1.88;;
46110;SDS011;31849;55.992;37.252;2023-04-15T05:06:51;6.38;;;2.00;;
46110;SDS011;31849;55.992;37.252;2023-04-15T05:11:56;6.03;;;2.15;;
46110;SDS011;31849;55.992;37.252;2023-04-15T05:17:02;8.35;;;1.75;;
46110;SDS011;31849;55.992;37.252;2023-04-15T05:22:07;4.97;;;1.73;;
46110;SDS011;31849;55.992;37.252;2023-04-15T05:32:18;5.00;;;1.42;;
46110;SDS011;31849;55.992;37.252;2023-04-15T05:37:23;5.72;;;1.98;;
46110;SDS011;31849;55.992;37.252;2023-04-15T05:42:28;3.72;;;1.70;;
46110;SDS011;31849;55.992;37.252;2023-04-15T05:47:34;3.22;;;1.63;;
46110;SDS011;31849;55.992;37.252;2023-04-15T05:52:40;4.05;;;1.70;;
46110;SDS011;31849;55.992;37.252;2023-04-15T05:57:45;3.80;;;2.00;;
46110;SDS011;31849;55.992;37.252;2023-04-15T06:07:56;5.25;;;2.20;;
46110;SDS011;31849;55.992;37.252;2023-04-15T06:13:01;5.10;;;2.20;;
46110;SDS011;31849;55.992;37.252;2023-04-15T06:18:07;7.10;;;2.10;;
46110;SDS011;31849;55.992;37.252;2023-04-15T06:23:13;4.70;;;1.80;;
46110;SDS011;31849;55.992;37.252;2023-04-15T06:33:24;4.43;;;1.93;;
46110;SDS011;31849;55.992;37.252;2023-04-15T06:38:29;5.22;;;2.13;;
46110;SDS011;31849;55.992;37.252;2023-04-15T06:48:39;4.90;;;2.13;;
46110;SDS011;31849;55.992;37.252;2023-04-15T06:53:44;4.72;;;2.20;;
46110;SDS011;31849;55.992;37.252;2023-04-15T07:03:54;3.40;;;2.00;;
46110;SDS011;31849;55.992;37.252;2023-04-15T07:08:59;6.45;;;2.00;;
46110;SDS011;31849;55.992;37.252;2023-04-15T07:14:05;5.93;;;2.10;;
46110;SDS011;31849;55.992;37.252;2023-04-15T07:19:11;5.13;;;2.25;;
46110;SDS011;31849;55.992;37.252;2023-04-15T07:24:17;4.78;;;1.80;;
46110;SDS011;31849;55.992;37.252;2023-04-15T07:29:22;5.18;;;2.30;;
46110;SDS011;31849;55.992;37.252;2023-04-15T07:34:28;4.63;;;2.08;;
46110;SDS011;31849;55.992;37.252;2023-04-15T07:39:34;3.90;;;2.00;;
46110;SDS011;31849;55.992;37.252;2023-04-15T07:44:39;7.05;;;2.42;;
46110;SDS011;31849;55.992;37.252;2023-04-15T07:49:45;6.43;;;1.90;;
46110;SDS011;31849;55.992;37.252;2023-04-15T07:54:50;5.47;;;2.13;;
46110;SDS011;31849;55.992;37.252;2023-04-15T07:59:55;4.65;;;2.03;;
46110;SDS011;31849;55.992;37.252;2023-04-15T08:05:01;7.57;;;2.22;;
46110;SDS011;31849;55.992;37.252;2023-04-15T08:10:07;4.68;;;1.90;;
46110;SDS011;31849;55.992;37.252;2023-04-15T08:15:12;4.60;;;2.00;;
46110;SDS011;31849;55.992;37.252;2023-04-15T08:20:19;5.03;;;2.03;;
46110;SDS011;31849;55.992;37.252;2023-04-15T08:25:23;3.33;;;1.92;;
46110;SDS011;31849;55.992;37.252;2023-04-15T08:30:29;3.40;;;1.90;;
46110;SDS011;31849;55.992;37.252;2023-04-15T08:40:40;4.70;;;1.90;;
46110;SDS011;31849;55.992;37.252;2023-04-15T08:45:46;3.63;;;1.90;;
46110;SDS011;31849;55.992;37.252;2023-04-15T08:50:55;5.60;;;1.98;;
46110;SDS011;31849;55.992;37.252;2023-04-15T08:56:01;3.22;;;1.67;;
46110;SDS011;31849;55.992;37.252;2023-04-15T09:01:10;3.38;;;1.83;;
46110;SDS011;31849;55.992;37.252;2023-04-15T09:06:17;4.63;;;1.90;;
46110;SDS011;31849;55.992;37.252;2023-04-15T09:11:22;4.45;;;2.30;;
46110;SDS011;31849;55.992;37.252;2023-04-15T09:16:27;7.82;;;2.33;;
46110;SDS011;31849;55.992;37.252;2023-04-15T09:21:33;3.72;;;2.03;;
46110;SDS011;31849;55.992;37.252;2023-04-15T09:26:38;4.63;;;1.85;;
46110;SDS011;31849;55.992;37.252;2023-04-15T09:31:43;3.80;;;1.90;;
46110;SDS011;31849;55.992;37.252;2023-04-15T09:36:56;4.53;;;1.90;;
46110;SDS011;31849;55.992;37.252;2023-04-15T09:42:04;7.88;;;2.25;;
46110;SDS011;31849;55.992;37.252;2023-04-15T09:47:25;5.38;;;2.00;;
46110;SDS011;31849;55.992;37.252;2023-04-15T09:52:32;6.43;;;2.30;;
46110;SDS011;31849;55.992;37.252;2023-04-15T09:57:37;4.43;;;2.10;;
46110;SDS011;31849;55.992;37.252;2023-04-15T10:02:43;5.63;;;2.15;;
46110;SDS011;31849;55.992;37.252;2023-04-15T10:07:50;6.10;;;1.90;;
46110;SDS011;31849;55.992;37.252;2023-04-15T10:12:55;4.72;;;1.90;;
46110;SDS011;31849;55.992;37.252;2023-04-15T10:23:06;4.72;;;2.05;;
46110;SDS011;31849;55.992;37.252;2023-04-15T10:28:15;7.07;;;2.60;;
46110;SDS011;31849;55.992;37.252;2023-04-15T10:33:21;5.20;;;2.10;;
46110;SDS011;31849;55.992;37.252;2023-04-15T10:38:32;5.53;;;2.10;;
46110;SDS011;31849;55.992;37.252;2023-04-15T10:43:38;11.32;;;2.40;;
46110;SDS011;31849;55.992;37.252;2023-04-15T10:53:53;4.20;;;2.13;;
46110;SDS011;31849;55.992;37.252;2023-04-15T10:59:00;8.65;;;2.30;;
46110;SDS011;31849;55.992;37.252;2023-04-15T11:04:05;6.25;;;2.47;;
46110;SDS011;31849;55.992;37.252;2023-04-15T11:09:14;5.47;;;2.10;;
46110;SDS011;31849;55.992;37.252;2023-04-15T11:14:38;4.45;;;2.08;;
46110;SDS011;31849;55.992;37.252;2023-04-15T11:19:45;5.90;;;2.30;;
46110;SDS011;31849;55.992;37.252;2023-04-15T11:29:55;5.75;;;2.25;;
46110;SDS011;31849;55.992;37.252;2023-04-15T11:35:00;7.30;;;2.20;;
46110;SDS011;31849;55.992;37.252;2023-04-15T11:40:07;6.15;;;2.38;;
46110;SDS011;31849;55.992;37.252;2023-04-15T11:45:14;6.75;;;2.58;;
46110;SDS011;31849;55.992;37.252;2023-04-15T11:50:19;6.25;;;2.42;;
46110;SDS011;31849;55.992;37.252;2023-04-15T11:55:25;5.72;;;2.30;;
46110;SDS011;31849;55.992;37.252;2023-04-15T12:00:29;6.72;;;2.60;;
46110;SDS011;31849;55.992;37.252;2023-04-15T12:05:33;6.35;;;2.45;;
46110;SDS011;31849;55.992;37.252;2023-04-15T12:10:38;7.70;;;2.72;;
46110;SDS011;31849;55.992;37.252;2023-04-15T12:20:45;5.35;;;2.58;;
46110;SDS011;31849;55.992;37.252;2023-04-15T12:25:52;5.07;;;2.33;;
46110;SDS011;31849;55.992;37.252;2023-04-15T12:30:55;4.35;;;2.45;;
46110;SDS011;31849;55.992;37.252;2023-04-15T12:36:00;6.55;;;2.53;;
46110;SDS011;31849;55.992;37.252;2023-04-15T12:41:05;4.63;;;2.13;;
46110;SDS011;31849;55.992;37.252;2023-04-15T12:46:08;6.13;;;1.92;;
46110;SDS011;31849;55.992;37.252;2023-04-15T12:51:12;5.03;;;2.08;;
46110;SDS011;31849;55.992;37.252;2023-04-15T12:56:17;4.00;;;1.88;;
46110;SDS011;31849;55.992;37.252;2023-04-15T13:01:21;7.35;;;2.28;;
46110;SDS011;31849;55.992;37.252;2023-04-15T13:06:24;4.88;;;2.08;;
46110;SDS011;31849;55.992;37.252;2023-04-15T13:11:31;4.32;;;2.25;;
46110;SDS011;31849;55.992;37.252;2023-04-15T13:16:35;7.47;;;2.10;;
46110;SDS011;31849;55.992;37.252;2023-04-15T13:21:39;6.55;;;2.28;;
46110;SDS011;31849;55.992;37.252;2023-04-15T13:26:44;4.87;;;1.83;;
46110;SDS011;31849;55.992;37.252;2023-04-15T13:31:50;6.72;;;2.67;;
46110;SDS011;31849;55.992;37.252;2023-04-15T13:36:54;6.03;;;2.40;;
46110;SDS011;31849;55.992;37.252;2023-04-15T13:42:00;7.77;;;2.67;;
46110;SDS011;31849;55.992;37.252;2023-04-15T13:47:04;5.70;;;2.55;;
46110;SDS011;31849;55.992;37.252;2023-04-15T13:52:08;7.82;;;2.97;;
46110;SDS011;31849;55.992;37.252;2023-04-15T13:57:13;5.50;;;2.53;;
46110;SDS011;31849;55.992;37.252;2023-04-15T14:02:16;4.78;;;2.97;;
46110;SDS011;31849;55.992;37.252;2023-04-15T14:07:20;6.57;;;2.97;;
46110;SDS011;31849;55.992;37.252;2023-04-15T14:12:25;6.78;;;3.58;;
46110;SDS011;31849;55.992;37.252;2023-04-15T14:17:29;6.15;;;3.42;;
46110;SDS011;31849;55.992;37.252;2023-04-15T14:22:33;10.48;;;4.60;;
46110;SDS011;31849;55.992;37.252;2023-04-15T14:27:38;9.43;;;5.03;;
46110;SDS011;31849;55.992;37.252;2023-04-15T14:37:45;10.05;;;6.18;;
46110;SDS011;31849;55.992;37.252;2023-04-15T14:42:50;12.60;;;7.38;;
46110;SDS011;31849;55.992;37.252;2023-04-15T14:47:53;11.63;;;8.40;;
46110;SDS011;31849;55.992;37.252;2023-04-15T14:52:57;15.43;;;9.43;;
46110;SDS011;31849;55.992;37.252;2023-04-15T14:58:02;14.00;;;9.07;;
46110;SDS011;31849;55.992;37.252;2023-04-15T15:03:07;15.38;;;8.48;;
46110;SDS011;31849;55.992;37.252;2023-04-15T15:08:15;10.88;;;6.18;;
46110;SDS011;31849;55.992;37.252;2023-04-15T15:13:20;13.00;;;7.30;;
46110;SDS011;31849;55.992;37.252;2023-04-15T15:23:27;11.60;;;5.05;;
46110;SDS011;31849;55.992;37.252;2023-04-15T15:28:32;9.32;;;4.43;;
46110;SDS011;31849;55.992;37.252;2023-04-15T15:33:36;11.02;;;4.45;;
46110;SDS011;31849;55.992;37.252;2023-04-15T15:38:39;13.65;;;5.22;;
46110;SDS011;31849;55.992;37.252;2023-04-15T15:43:44;11.33;;;4.10;;
46110;SDS011;31849;55.992;37.252;2023-04-15T15:48:48;9.07;;;3.78;;
46110;SDS011;31849;55.992;37.252;2023-04-15T15:53:52;6.63;;;4.00;;
46110;SDS011;31849;55.992;37.252;2023-04-15T15:58:57;7.93;;;3.90;;
46110;SDS011;31849;55.992;37.252;2023-04-15T16:09:04;13.45;;;4.15;;
46110;SDS011;31849;55.992;37.252;2023-04-15T16:14:09;8.90;;;3.70;;
46110;SDS011;31849;55.992;37.252;2023-04-15T16:19:14;10.25;;;3.42;;
46110;SDS011;31849;55.992;37.252;2023-04-15T16:24:18;9.95;;;4.25;;
46110;SDS011;31849;55.992;37.252;2023-04-15T16:29:23;10.32;;;3.47;;
46110;SDS011;31849;55.992;37.252;2023-04-15T16:34:27;11.00;;;3.60;;
46110;SDS011;31849;55.992;37.252;2023-04-15T16:39:30;15.18;;;4.32;;
46110;SDS011;31849;55.992;37.252;2023-04-15T16:44:35;10.77;;;3.70;;
46110;SDS011;31849;55.992;37.252;2023-04-15T16:49:39;7.13;;;4.05;;
46110;SDS011;31849;55.992;37.252;2023-04-15T16:54:43;14.77;;;4.47;;
46110;SDS011;31849;55.992;37.252;2023-04-15T16:59:48;9.70;;;4.07;;
46110;SDS011;31849;55.992;37.252;2023-04-15T17:09:55;14.75;;;4.50;;
46110;SDS011;31849;55.992;37.252;2023-04-15T17:15:00;12.13;;;4.32;;
46110;SDS011;31849;55.992;37.252;2023-04-15T17:20:08;14.00;;;4.82;;
46110;SDS011;31849;55.992;37.252;2023-04-15T17:25:14;10.93;;;4.97;;
46110;SDS011;31849;55.992;37.252;2023-04-15T17:30:25;12.80;;;5.57;;
46110;SDS011;31849;55.992;37.252;2023-04-15T17:35:48;21.13;;;7.55;;
46110;SDS011;31849;55.992;37.252;2023-04-15T17:41:12;19.23;;;7.90;;
46110;SDS011;31849;55.992;37.252;2023-04-15T17:46:37;22.23;;;7.70;;
46110;SDS011;31849;55.992;37.252;2023-04-15T17:52:01;18.55;;;7.57;;
46110;SDS011;31849;55.992;37.252;2023-04-15T17:57:24;21.13;;;7.47;;
46110;SDS011;31849;55.992;37.252;2023-04-15T18:02:49;16.00;;;7.28;;
46110;SDS011;31849;55.992;37.252;2023-04-15T18:08:13;17.35;;;8.52;;
46110;SDS011;31849;55.992;37.252;2023-04-15T18:13:37;17.17;;;8.13;;
46110;SDS011;31849;55.992;37.252;2023-04-15T18:19:05;16.55;;;7.00;;
46110;SDS011;31849;55.992;37.252;2023-04-15T18:24:09;16.08;;;7.57;;
46110;SDS011;31849;55.992;37.252;2023-04-15T18:29:13;16.85;;;7.25;;
46110;SDS011;31849;55.992;37.252;2023-04-15T18:34:18;17.55;;;6.30;;
46110;SDS011;31849;55.992;37.252;2023-04-15T18:44:25;17.35;;;7.10;;
46110;SDS011;31849;55.992;37.252;2023-04-15T18:49:30;14.43;;;5.55;;
46110;SDS011;31849;55.992;37.252;2023-04-15T18:54:34;14.43;;;6.30;;
46110;SDS011;31849;55.992;37.252;2023-04-15T18:59:41;14.98;;;6.28;;
46110;SDS011;31849;55.992;37.252;2023-04-15T19:04:46;13.63;;;6.53;;
46110;SDS011;31849;55.992;37.252;2023-04-15T19:14:53;15.23;;;7.55;;
46110;SDS011;31849;55.992;37.252;2023-04-15T19:19:58;12.55;;;7.63;;
46110;SDS011;31849;55.992;37.252;2023-04-15T19:25:04;15.00;;;7.65;;
46110;SDS011;31849;55.992;37.252;2023-04-15T19:30:08;16.77;;;6.47;;
46110;SDS011;31849;55.992;37.252;2023-04-15T19:35:13;15.52;;;5.80;;
46110;SDS011;31849;55.992;37.252;2023-04-15T19:40:17;13.40;;;6.25;;
46110;SDS011;31849;55.992;37.252;2023-04-15T19:45:21;14.30;;;6.45;;
46110;SDS011;31849;55.992;37.252;2023-04-15T19:50:26;13.65;;;5.97;;
46110;SDS011;31849;55.992;37.252;2023-04-15T19:55:30;16.30;;;6.72;;
46110;SDS011;31849;55.992;37.252;2023-04-15T20:00:34;14.05;;;7.30;;
46110;SDS011;31849;55.992;37.252;2023-04-15T20:05:40;13.13;;;6.72;;
46110;SDS011;31849;55.992;37.252;2023-04-15T20:15:47;16.55;;;6.43;;
46110;SDS011;31849;55.992;37.252;2023-04-15T20:20:52;12.77;;;6.57;;
46110;SDS011;31849;55.992;37.252;2023-04-15T20:25:55;11.48;;;6.03;;
46110;SDS011;31849;55.992;37.252;2023-04-15T20:30:59;15.25;;;6.15;;
46110;SDS011;31849;55.992;37.252;2023-04-15T20:36:05;14.03;;;5.40;;
46110;SDS011;31849;55.992;37.252;2023-04-15T20:41:08;11.88;;;5.28;;
46110;SDS011;31849;55.992;37.252;2023-04-15T20:46:12;15.52;;;5.72;;
46110;SDS011;31849;55.992;37.252;2023-04-15T20:51:23;11.77;;;5.22;;
46110;SDS011;31849;55.992;37.252;2023-04-15T20:56:28;13.18;;;5.25;;
46110;SDS011;31849;55.992;37.252;2023-04-15T21:01:31;13.90;;;4.90;;
46110;SDS011;31849;55.992;37.252;2023-04-15T21:06:36;12.65;;;4.10;;
46110;SDS011;31849;55.992;37.252;2023-04-15T21:11:43;14.27;;;4.72;;
46110;SDS011;31849;55.992;37.252;2023-04-15T21:17:02;9.77;;;4.05;;
46110;SDS011;31849;55.992;37.252;2023-04-15T21:22:13;11.90;;;4.43;;
46110;SDS011;31849;55.992;37.252;2023-04-15T21:27:16;10.05;;;3.30;;
46110;SDS011;31849;55.992;37.252;2023-04-15T21:32:20;9.02;;;3.60;;
46110;SDS011;31849;55.992;37.252;2023-04-15T21:37:25;6.97;;;3.78;;
46110;SDS011;31849;55.992;37.252;2023-04-15T21:42:29;15.05;;;3.50;;
46110;SDS011;31849;55.992;37.252;2023-04-15T21:47:32;10.52;;;3.92;;
46110;SDS011;31849;55.992;37.252;2023-04-15T21:52:58;13.63;;;3.40;;
46110;SDS011;31849;55.992;37.252;2023-04-15T21:58:01;14.80;;;3.80;;
46110;SDS011;31849;55.992;37.252;2023-04-15T22:03:05;9.20;;;3.90;;
46110;SDS011;31849;55.992;37.252;2023-04-15T22:08:10;8.35;;;3.97;;
46110;SDS011;31849;55.992;37.252;2023-04-15T22:18:18;10.85;;;3.55;;
46110;SDS011;31849;55.992;37.252;2023-04-15T22:23:23;9.57;;;3.47;;
46110;SDS011;31849;55.992;37.252;2023-04-15T22:28:27;12.02;;;3.78;;
46110;SDS011;31849;55.992;37.252;2023-04-15T22:33:30;7.63;;;3.97;;
46110;SDS011;31849;55.992;37.252;2023-04-15T22:38:36;9.73;;;4.07;;
46110;SDS011;31849;55.992;37.252;2023-04-15T22:48:42;10.68;;;4.53;;
46110;SDS011;31849;55.992;37.252;2023-04-15T22:53:48;9.48;;;4.30;;
46110;SDS011;31849;55.992;37.252;2023-04-15T22:58:51;8.35;;;3.97;;
46110;SDS011;31849;55.992;37.252;2023-04-15T23:03:55;8.15;;;4.32;;
46110;SDS011;31849;55.992;37.252;2023-04-15T23:09:20;13.52;;;3.85;;
46110;SDS011;31849;55.992;37.252;2023-04-15T23:14:24;9.48;;;4.00;;
46110;SDS011;31849;55.992;37.252;2023-04-15T23:19:28;7.95;;;3.70;;
46110;SDS011;31849;55.992;37.252;2023-04-15T23:24:33;10.50;;;4.25;;
46110;SDS011;31849;55.992;37.252;2023-04-15T23:29:37;12.38;;;3.95;;
46110;SDS011;31849;55.992;37.252;2023-04-15T23:34:40;10.43;;;4.05;;
46110;SDS011;31849;55.992;37.252;2023-04-15T23:39:45;14.82;;;4.50;;
46110;SDS011;31849;55.992;37.252;2023-04-15T23:44:49;10.60;;;4.82;;
46110;SDS011;31849;55.992;37.252;2023-04-15T23:49:53;10.20;;;4.47;;
46110;SDS011;31849;55.992;37.252;2023-04-15T23:54:58;8.40;;;4.18;;
